Time;durP1;ratioP1;P1;durP2;ratioP2;P2;SDS_P1;SDS_P2;PMS_P1;PMS_P2;Temp;Humidity;BMP_temperature;BMP_pressure;BME280_temperature;BME280_humidity;BME280_pressure;Samples;Min_cycle;Max_cycle;Signal;HPM_P1;HPM_P2
2023/09/02 00:01:32;;;;;;;18.05;10.15;;;;;;;-149.70;100.00;76776.19;4966148;28;20055;-62
2023/09/02 00:04:01;;;;;;;14.27;9.27;;;;;;;-149.70;100.00;76778.22;4984031;28;20046;-62
2023/09/02 00:06:29;;;;;;;18.33;9.32;;;;;;;-149.70;100.00;76782.28;4983997;28;20055;-62
2023/09/02 00:08:55;;;;;;;16.65;9.98;;;;;;;-149.70;100.00;76792.47;4985015;28;20051;-62
2023/09/02 00:11:23;;;;;;;13.82;8.68;;;;;;;-149.70;100.00;76784.31;4984547;28;20439;-62
2023/09/02 00:13:50;;;;;;;20.90;9.65;;;;;;;-149.70;100.00;76786.38;4984470;28;20062;-62
2023/09/02 00:16:17;;;;;;;15.90;9.25;;;;;;;-149.70;100.00;76792.47;4984428;28;20084;-62
2023/09/02 00:18:45;;;;;;;15.27;8.85;;;;;;;-149.70;100.00;76798.56;4983761;28;20111;-62
2023/09/02 00:21:13;;;;;;;18.50;9.10;;;;;;;-149.70;100.00;76800.59;4983567;28;20042;-62
2023/09/02 00:23:45;;;;;;;16.42;9.63;;;;;;;-149.70;100.00;76806.69;4983915;28;20051;-62
2023/09/02 00:26:12;;;;;;;19.02;10.02;;;;;;;-149.70;100.00;76806.69;4983594;28;20101;-62
2023/09/02 00:28:39;;;;;;;16.20;9.00;;;;;;;-149.70;100.00;76827.03;4983796;28;20237;-62
2023/09/02 00:31:05;;;;;;;21.83;9.38;;;;;;;-149.70;100.00;76825.00;4967195;28;20050;-62
2023/09/02 00:33:32;;;;;;;14.48;8.65;;;;;;;-149.70;100.00;76820.94;4983593;28;20043;-62
2023/09/02 00:35:59;;;;;;;15.45;9.52;;;;;;;-149.70;100.00;76818.91;4983852;28;20042;-62
2023/09/02 00:38:25;;;;;;;21.85;9.35;;;;;;;-149.70;100.00;76816.88;4984245;28;20054;-62
2023/09/02 00:41:00;;;;;;;14.65;9.13;;;;;;;-149.70;100.00;76835.16;4984558;28;20070;-62
2023/09/02 00:43:28;;;;;;;17.52;9.27;;;;;;;-149.70;100.00;76825.00;4982552;28;20057;-62
2023/09/02 00:45:55;;;;;;;14.77;9.15;;;;;;;-149.70;100.00;76829.06;4984272;28;20047;-62
2023/09/02 00:48:22;;;;;;;13.57;8.35;;;;;;;-149.70;100.00;76837.19;4983180;28;20480;-62
2023/09/02 00:50:49;;;;;;;20.98;9.45;;;;;;;-149.70;100.00;76841.25;4982939;28;20499;-62
2023/09/02 00:53:18;;;;;;;14.13;8.45;;;;;;;-149.70;100.00;76851.44;4983377;28;20050;-62
2023/09/02 00:55:47;;;;;;;12.30;8.27;;;;;;;-149.70;100.00;76855.50;4982979;28;20059;-62
2023/09/02 00:58:13;;;;;;;19.10;9.07;;;;;;;-149.70;100.00;76857.53;4983237;28;20553;-62
2023/09/02 01:00:40;;;;;;;16.00;8.88;;;;;;;-149.70;100.00;76855.50;4982470;28;20050;-63
2023/09/02 01:03:07;;;;;;;16.17;8.73;;;;;;;-149.70;100.00;76853.47;4982747;28;20050;-62
2023/09/02 01:09:20;;;;;;;16.23;8.75;;;;;;;-149.70;100.00;76835.16;4980178;28;20082;-62
2023/09/02 01:11:46;;;;;;;14.05;8.60;;;;;;;-149.70;100.00;76845.34;4979472;28;20067;-62
2023/09/02 01:14:14;;;;;;;16.75;8.68;;;;;;;-149.70;100.00;76849.41;4978646;28;20113;-61
2023/09/02 01:16:41;;;;;;;14.15;8.35;;;;;;;-149.70;100.00;76853.47;4978490;28;20518;-62
2023/09/02 01:19:12;;;;;;;10.70;8.30;;;;;;;-149.70;100.00;76857.53;4979529;28;20114;-61
2023/09/02 01:21:45;;;;;;;14.43;8.13;;;;;;;-149.70;100.00;76855.50;4979152;28;20479;-61
2023/09/02 01:24:17;;;;;;;16.25;8.00;;;;;;;-149.70;100.00;76865.66;4978409;28;20051;-62
2023/09/02 01:27:38;;;;;;;17.10;8.55;;;;;;;-149.70;100.00;76869.75;4979332;28;20078;-62
2023/09/02 01:30:13;;;;;;;17.02;8.40;;;;;;;-149.70;100.00;76873.81;4882911;29;20051;-61
2023/09/02 01:32:42;;;;;;;16.90;8.73;;;;;;;-149.70;100.00;76883.97;4884443;29;20048;-61
2023/09/02 01:35:15;;;;;;;15.57;8.38;;;;;;;-149.70;100.00;76877.88;4885283;29;20049;-60
2023/09/02 01:37:44;;;;;;;20.48;8.27;;;;;;;-149.70;100.00;76886.00;4884934;29;20049;-61
2023/09/02 01:40:21;;;;;;;15.60;7.95;;;;;;;-149.70;100.00;76894.13;4884854;29;20126;-61
2023/09/02 01:42:55;;;;;;;16.23;7.80;;;;;;;-149.70;100.00;76890.06;4884741;29;20516;-62
2023/09/02 01:45:25;;;;;;;17.20;8.07;;;;;;;-149.70;100.00;76900.25;4885168;29;20075;-62
2023/09/02 01:47:52;;;;;;;19.75;8.25;;;;;;;-149.70;100.00;76900.25;4885582;29;20096;-61
2023/09/02 01:50:23;;;;;;;12.73;7.72;;;;;;;-149.70;100.00;76898.22;4884944;29;20421;-61
2023/09/02 01:52:50;;;;;;;14.63;7.25;;;;;;;-149.70;100.00;76906.34;4885683;29;20096;-61
2023/09/02 01:55:17;;;;;;;13.07;8.25;;;;;;;-149.70;100.00;76906.34;4884971;29;20498;-61
2023/09/02 01:57:44;;;;;;;12.50;8.00;;;;;;;-149.70;100.00;76910.41;4885802;29;20049;-62
2023/09/02 02:00:11;;;;;;;20.20;8.23;;;;;;;-149.70;100.00;76918.53;4885970;29;20056;-62
2023/09/02 02:02:39;;;;;;;16.05;8.90;;;;;;;-149.70;100.00;76918.53;4886055;29;20052;-62
2023/09/02 02:05:08;;;;;;;17.15;8.88;;;;;;;-149.70;100.00;76926.69;4955492;28;20043;-61
2023/09/02 02:07:38;;;;;;;16.65;8.30;;;;;;;-149.70;100.00;76920.56;4962850;28;20074;-62
2023/09/02 02:10:07;;;;;;;12.47;8.50;;;;;;;-149.70;100.00;76924.63;4963047;28;20516;-62
2023/09/02 02:12:38;;;;;;;16.67;7.88;;;;;;;-149.70;100.00;76930.75;4963286;28;20043;-62
2023/09/02 02:15:05;;;;;;;15.10;7.88;;;;;;;-149.70;100.00;76942.94;4963127;28;20079;-61
2023/09/02 02:17:31;;;;;;;12.88;8.15;;;;;;;-149.70;100.00;76951.06;4963495;28;20043;-62
2023/09/02 02:19:58;;;;;;;11.38;7.38;;;;;;;-149.70;100.00;76955.16;4962577;28;20050;-61
2023/09/02 02:22:25;;;;;;;14.98;7.65;;;;;;;-149.70;100.00;76957.19;4962851;28;20047;-62
2023/09/02 02:24:52;;;;;;;13.07;7.85;;;;;;;-149.70;100.00;76951.06;4961843;28;20102;-61
2023/09/02 02:27:20;;;;;;;10.88;7.63;;;;;;;-149.70;100.00;76955.16;4962285;28;20051;-62
2023/09/02 02:29:46;;;;;;;19.05;7.90;;;;;;;-149.70;100.00;76955.16;4961646;28;20518;-61
2023/09/02 02:32:13;;;;;;;16.42;7.93;;;;;;;-149.70;100.00;76961.25;4964187;28;20054;-61
2023/09/02 02:34:39;;;;;;;14.05;8.10;;;;;;;-149.70;100.00;76934.81;4963035;28;20051;-62
2023/09/02 02:37:06;;;;;;;12.52;7.30;;;;;;;-149.70;100.00;76953.13;4963194;28;20047;-61
2023/09/02 02:39:32;;;;;;;12.85;7.57;;;;;;;-149.70;100.00;76963.28;4962642;28;20447;-61
2023/09/02 02:41:59;;;;;;;16.65;7.90;;;;;;;-149.70;100.00;76973.44;4962098;28;20039;-62
2023/09/02 02:44:25;;;;;;;20.63;8.20;;;;;;;-149.70;100.00;76973.44;4962082;28;20054;-62
2023/09/02 02:46:52;;;;;;;17.20;7.68;;;;;;;-149.70;100.00;76975.47;4963186;28;20102;-61
2023/09/02 02:49:18;;;;;;;11.60;7.22;;;;;;;-149.70;100.00;76971.41;4959433;28;20051;-63
2023/09/02 02:51:46;;;;;;;11.88;7.43;;;;;;;-149.70;100.00;76983.63;4961837;28;20070;-62
2023/09/02 02:54:12;;;;;;;10.20;7.45;;;;;;;-149.70;100.00;76991.75;4962967;28;20074;-62
2023/09/02 02:56:39;;;;;;;13.68;8.13;;;;;;;-149.70;100.00;76989.72;4962688;28;20265;-62
2023/09/02 02:59:06;;;;;;;14.63;8.45;;;;;;;-149.70;100.00;76991.75;4963604;28;20050;-62
2023/09/02 03:01:32;;;;;;;11.73;8.05;;;;;;;-149.70;100.00;76999.88;4966741;28;20110;-62
2023/09/02 03:03:59;;;;;;;18.98;8.95;;;;;;;-149.70;100.00;77012.09;4982008;28;20047;-62
2023/09/02 03:06:26;;;;;;;17.40;8.63;;;;;;;-149.70;100.00;77008.00;4981551;28;20047;-62
2023/09/02 03:08:52;;;;;;;15.63;7.93;;;;;;;-149.70;100.00;77010.06;4982024;28;20118;-62
2023/09/02 03:11:19;;;;;;;14.10;8.73;;;;;;;-149.70;100.00;76999.88;4982319;28;20042;-62
2023/09/02 03:13:45;;;;;;;11.27;7.95;;;;;;;-149.70;100.00;77001.91;4965012;28;20415;-62
2023/09/02 03:16:12;;;;;;;13.93;8.25;;;;;;;-149.70;100.00;77005.97;4981608;28;20047;-62
2023/09/02 03:18:40;;;;;;;16.60;8.32;;;;;;;-149.70;100.00;77010.06;4982506;28;20047;-62
2023/09/02 03:21:07;;;;;;;13.05;7.43;;;;;;;-149.70;100.00;77003.94;4964186;28;20487;-61
2023/09/02 03:23:35;;;;;;;15.93;8.65;;;;;;;-149.70;100.00;77010.06;4980881;28;20078;-62
2023/09/02 03:26:11;;;;;;;13.15;7.57;;;;;;;-149.70;100.00;77016.16;4981449;28;20088;-61
2023/09/02 03:28:38;;;;;;;12.13;7.80;;;;;;;-149.70;100.00;77024.28;4981810;28;20053;-62
2023/09/02 03:31:08;;;;;;;15.25;8.07;;;;;;;-149.70;100.00;77028.34;4981554;28;20098;-62
2023/09/02 03:33:36;;;;;;;14.10;8.23;;;;;;;-149.70;100.00;77032.41;4981653;28;20057;-61
2023/09/02 03:36:03;;;;;;;11.55;7.43;;;;;;;-149.70;100.00;77038.53;4981918;28;20047;-61
2023/09/02 03:38:30;;;;;;;13.93;8.40;;;;;;;-149.70;100.00;77044.63;4985686;28;20581;-61
2023/09/02 03:40:58;;;;;;;14.25;7.88;;;;;;;-149.70;100.00;77044.63;4985128;28;20043;-61
2023/09/02 03:43:24;;;;;;;22.83;8.45;;;;;;;-149.70;100.00;77048.69;4984572;28;20042;-61
2023/09/02 03:45:51;;;;;;;12.57;8.25;;;;;;;-149.70;100.00;77042.59;4986618;28;20069;-61
2023/09/02 03:48:20;;;;;;;12.82;7.43;;;;;;;-149.70;100.00;77048.69;4986572;28;20050;-62
2023/09/02 03:51:12;;;;;;;13.27;7.53;;;;;;;-149.70;100.00;77056.81;4987814;28;20071;-62
2023/09/02 03:53:39;;;;;;;15.07;8.43;;;;;;;-149.70;100.00;77054.78;4987827;28;20047;-61
2023/09/02 03:56:06;;;;;;;14.52;8.50;;;;;;;-149.70;100.00;77060.88;4987988;28;20062;-61
2023/09/02 03:58:33;;;;;;;11.13;7.65;;;;;;;-149.70;100.00;77071.06;4988132;28;20043;-61
2023/09/02 04:01:00;;;;;;;12.73;8.15;;;;;;;-149.70;100.00;77069.03;4986602;28;20043;-62
2023/09/02 04:03:28;;;;;;;13.48;8.55;;;;;;;-149.70;100.00;77075.13;4987992;28;20073;-61
2023/09/02 04:05:55;;;;;;;13.48;7.55;;;;;;;-149.70;100.00;77069.03;4988390;28;20062;-62
2023/09/02 04:08:25;;;;;;;15.32;8.13;;;;;;;-149.70;100.00;77064.97;4986971;28;20043;-62
2023/09/02 04:10:56;;;;;;;13.88;8.60;;;;;;;-149.70;100.00;77067.00;4985982;28;20042;-61
2023/09/02 04:13:24;;;;;;;15.52;8.25;;;;;;;-149.70;100.00;77058.84;4986301;28;20083;-61
2023/09/02 04:15:55;;;;;;;14.27;8.80;;;;;;;-149.70;100.00;77069.03;4985958;28;20043;-61
2023/09/02 04:18:22;;;;;;;19.25;9.02;;;;;;;-149.70;100.00;77079.19;4985971;28;20047;-62
2023/09/02 04:20:49;;;;;;;12.60;8.80;;;;;;;-149.70;100.00;77075.13;4987227;28;20078;-61
2023/09/02 04:23:17;;;;;;;14.23;9.32;;;;;;;-149.70;100.00;77077.16;4987442;28;20046;-61
2023/09/02 04:25:51;;;;;;;12.55;8.30;;;;;;;-149.70;100.00;77077.16;4987381;28;20135;-61
2023/09/02 04:28:18;;;;;;;17.08;8.73;;;;;;;-149.70;100.00;77077.16;4979732;28;20083;-61
2023/09/02 04:30:46;;;;;;;13.85;9.38;;;;;;;-149.70;100.00;77081.22;4975172;28;20038;-61
2023/09/02 04:33:13;;;;;;;14.40;8.32;;;;;;;-149.70;100.00;77081.22;4988168;28;20082;-61
2023/09/02 04:35:42;;;;;;;14.25;9.07;;;;;;;-149.70;100.00;77079.19;4988947;28;20042;-61
2023/09/02 04:38:09;;;;;;;15.93;8.57;;;;;;;-149.70;100.00;77085.28;4989179;28;20407;-61
2023/09/02 04:40:37;;;;;;;14.48;8.70;;;;;;;-149.70;100.00;77087.31;4988008;28;20042;-61
2023/09/02 04:43:05;;;;;;;13.95;8.63;;;;;;;-149.70;100.00;77087.31;4988345;28;20088;-62
2023/09/02 04:45:35;;;;;;;15.73;8.98;;;;;;;-149.70;100.00;77091.41;4987396;28;20054;-61
2023/09/02 04:48:03;;;;;;;22.77;11.43;;;;;;;-149.70;100.00;77095.47;4987591;28;20050;-61
2023/09/02 04:50:31;;;;;;;19.83;8.82;;;;;;;-149.70;100.00;77095.47;4986535;28;20074;-61
2023/09/02 04:53:00;;;;;;;16.15;10.10;;;;;;;-149.70;100.00;77101.56;4987114;28;20449;-61
2023/09/02 04:55:28;;;;;;;16.52;9.27;;;;;;;-149.70;100.00;77093.44;4985221;28;20109;-61
2023/09/02 04:57:56;;;;;;;15.30;8.48;;;;;;;-149.70;100.00;77095.47;4985766;28;20047;-62
2023/09/02 05:00:27;;;;;;;14.23;9.05;;;;;;;-149.70;100.00;77093.44;4983884;28;20047;-61
2023/09/02 05:02:54;;;;;;;15.18;10.45;;;;;;;-149.70;100.00;77093.44;4984749;28;20053;-61
2023/09/02 05:05:22;;;;;;;16.73;8.90;;;;;;;-149.70;100.00;77087.31;4985563;28;20043;-63
2023/09/02 05:07:49;;;;;;;17.30;9.30;;;;;;;-149.70;100.00;77095.47;4984113;28;20053;-61
2023/09/02 05:10:15;;;;;;;14.85;9.60;;;;;;;-149.70;100.00;77093.44;5000380;28;20100;-61
2023/09/02 05:12:42;;;;;;;24.30;10.43;;;;;;;-149.70;100.00;77091.41;4985486;28;20051;-62
2023/09/02 05:15:09;;;;;;;20.08;9.73;;;;;;;-149.70;100.00;77083.25;4986538;28;20055;-61
2023/09/02 05:17:36;;;;;;;15.98;10.23;;;;;;;-149.70;100.00;77091.41;4985271;28;20047;-61
2023/09/02 05:20:04;;;;;;;17.42;9.50;;;;;;;-149.70;100.00;77093.44;4985277;28;20054;-62
2023/09/02 05:22:31;;;;;;;21.77;10.93;;;;;;;-149.70;100.00;77091.41;4978886;28;20047;-62
2023/09/02 05:24:58;;;;;;;16.88;10.02;;;;;;;-149.70;100.00;77087.31;4965477;28;20136;-61
2023/09/02 05:27:24;;;;;;;16.30;10.23;;;;;;;-149.70;100.00;77083.25;4973430;28;20043;-62
2023/09/02 05:29:51;;;;;;;18.77;10.52;;;;;;;-149.70;100.00;77079.19;4984291;28;20113;-62
2023/09/02 05:32:18;;;;;;;16.00;9.50;;;;;;;-149.70;100.00;77064.97;4983152;28;20055;-62
2023/09/02 05:34:45;;;;;;;17.52;9.98;;;;;;;-149.70;100.00;77042.59;4971158;28;20476;-62
2023/09/02 05:37:12;;;;;;;13.40;8.75;;;;;;;-149.70;100.00;77024.28;4965254;28;20079;-62
2023/09/02 05:39:39;;;;;;;14.35;8.98;;;;;;;-149.70;100.00;77012.09;4966576;28;20070;-61
2023/09/02 05:42:06;;;;;;;14.20;9.00;;;;;;;-149.70;100.00;77012.09;4965307;28;20051;-62
2023/09/02 05:44:35;;;;;;;17.55;8.95;;;;;;;-149.70;100.00;77020.22;4964956;28;20074;-61
2023/09/02 05:47:02;;;;;;;16.20;8.20;;;;;;;-149.70;100.00;77012.09;4965194;28;20439;-61
2023/09/02 05:49:29;;;;;;;17.98;8.80;;;;;;;-149.70;100.00;76995.81;4964892;28;20073;-62
2023/09/02 05:51:56;;;;;;;19.17;9.35;;;;;;;-149.70;100.00;76991.75;4965734;28;20047;-61
2023/09/02 05:54:22;;;;;;;18.65;8.55;;;;;;;-149.70;100.00;76977.50;4965140;28;20098;-62
2023/09/02 05:56:49;;;;;;;15.48;8.60;;;;;;;-149.70;100.00;76963.28;4965057;28;20047;-61
2023/09/02 05:59:15;;;;;;;17.83;8.73;;;;;;;-149.70;100.00;76953.13;4964857;28;20606;-62
2023/09/02 06:01:43;;;;;;;22.15;8.10;;;;;;;-149.70;100.00;76930.75;4969946;28;20053;-61
2023/09/02 06:04:09;;;;;;;15.68;6.93;;;;;;;-149.70;100.00;76922.59;4985670;28;20054;-61
2023/09/02 06:06:36;;;;;;;17.88;7.40;;;;;;;-149.70;100.00;76910.41;4984789;28;20047;-61
2023/09/02 06:09:03;;;;;;;13.85;7.03;;;;;;;-149.70;100.00;76879.91;4983452;28;20074;-61
2023/09/02 06:11:31;;;;;;;16.50;7.38;;;;;;;-149.70;100.00;76869.75;4983039;28;20050;-61
2023/09/02 06:13:57;;;;;;;11.48;6.82;;;;;;;-149.70;100.00;76898.22;4983439;28;20051;-62
2023/09/02 06:16:24;;;;;;;12.02;7.32;;;;;;;-149.70;100.00;76898.22;4982988;28;20058;-62
2023/09/02 06:18:50;;;;;;;16.42;7.78;;;;;;;-149.70;100.00;76879.91;4983933;28;20043;-62
2023/09/02 06:21:17;;;;;;;24.50;10.88;;;;;;;-149.70;100.00;76879.91;4983305;28;20046;-62
2023/09/02 06:23:44;;;;;;;19.70;10.35;;;;;;;-149.70;100.00;76877.88;4983054;28;20061;-61
2023/09/02 06:26:12;;;;;;;16.58;8.52;;;;;;;-149.70;100.00;76877.88;4967513;28;20129;-61
2023/09/02 06:28:39;;;;;;;14.02;8.25;;;;;;;-149.70;100.00;76851.44;4983209;28;20047;-61
2023/09/02 06:31:07;;;;;;;14.70;6.72;;;;;;;-149.70;100.00;76820.94;4983744;28;20050;-61
2023/09/02 06:33:34;;;;;;;15.68;6.53;;;;;;;-149.70;100.00;76798.56;4982334;28;20047;-61
2023/09/02 06:36:09;;;;;;;13.32;6.65;;;;;;;-149.70;100.00;76792.47;4982533;28;21091;-61
2023/09/02 06:38:36;;;;;;;11.98;6.25;;;;;;;8.95;100.00;100605.03;4983219;28;20047;-61
2023/09/02 06:41:15;;;;;;;12.60;5.47;;;;;;;11.08;100.00;100953.44;4982759;28;20070;-61
2023/09/02 06:43:42;;;;;;;11.85;5.40;;;;;;;11.31;100.00;100983.25;4983012;28;20122;-62
2023/09/02 06:46:16;;;;;;;12.73;5.35;;;;;;;12.03;100.00;101086.00;4982676;28;20043;-61
2023/09/02 06:48:44;;;;;;;12.30;5.32;;;;;;;12.43;100.00;101106.00;4983037;28;20043;-61
2023/09/02 06:51:11;;;;;;;13.98;6.05;;;;;;;12.81;100.00;101140.47;4982783;28;20042;-61
2023/09/02 06:53:39;;;;;;;8.07;5.30;;;;;;;13.13;100.00;101167.63;4981795;28;20050;-61
2023/09/02 06:56:07;;;;;;;16.48;5.80;;;;;;;13.29;100.00;101178.44;4981366;28;20054;-61
2023/09/02 06:58:43;;;;;;;16.38;5.47;;;;;;;13.85;100.00;101202.88;4981674;28;20054;-61
2023/09/02 07:01:22;;;;;;;13.25;4.80;;;;;;;13.77;100.00;101220.75;4980695;28;20042;-61
2023/09/02 07:03:50;;;;;;;13.75;5.30;;;;;;;14.35;100.00;101228.75;4980516;28;20055;-62
2023/09/02 07:06:18;;;;;;;8.75;5.20;;;;;;;14.53;100.00;101232.06;4981660;28;20066;-62
2023/09/02 07:08:45;;;;;;;10.73;4.53;;;;;;;14.83;100.00;101232.34;4965013;28;20050;-61
2023/09/02 07:11:14;;;;;;;9.60;4.75;;;;;;;15.22;100.00;101243.09;4983368;28;20055;-61
2023/09/02 07:13:45;;;;;;;11.32;5.10;;;;;;;15.53;100.00;101256.56;4985057;28;20055;-61
2023/09/02 07:16:14;;;;;;;9.40;4.25;;;;;;;16.03;100.00;101266.03;4983776;28;20466;-61
2023/09/02 07:18:41;;;;;;;10.93;4.80;;;;;;;16.12;100.00;101261.38;4983729;28;20070;-61
2023/09/02 07:21:08;;;;;;;10.98;4.47;;;;;;;16.51;100.00;101258.47;4983670;28;20053;-61
2023/09/02 07:23:34;;;;;;;14.00;4.63;;;;;;;17.11;100.00;101270.09;4983365;28;20097;-60
2023/09/02 07:26:01;;;;;;;11.18;3.92;;;;;;;17.55;100.00;101277.31;4984039;28;20063;-60
2023/09/02 07:28:28;;;;;;;9.18;4.80;;;;;;;18.06;100.00;101272.56;4982910;28;20051;-61
2023/09/02 07:30:56;;;;;;;13.60;3.80;;;;;;;18.17;100.00;101267.63;4983832;28;20051;-62
2023/09/02 07:33:22;;;;;;;8.93;3.78;;;;;;;18.28;100.00;101270.66;4983923;28;20085;-61
2023/09/02 07:35:49;;;;;;;7.47;3.38;;;;;;;19.23;100.00;101273.69;4983328;28;20050;-61
2023/09/02 07:38:17;;;;;;;9.57;3.97;;;;;;;19.47;100.00;101277.75;4983668;28;20086;-61
2023/09/02 07:40:43;;;;;;;7.00;3.60;;;;;;;19.50;94.33;101286.34;4983326;28;20047;-61
2023/09/02 07:43:10;;;;;;;11.82;3.92;;;;;;;20.01;90.56;101284.97;4984270;28;20050;-61
2023/09/02 07:45:37;;;;;;;6.45;3.38;;;;;;;19.76;87.58;101289.34;4983870;28;20502;-61
2023/09/02 07:48:04;;;;;;;6.55;3.17;;;;;;;19.93;86.47;101290.59;4982670;28;20146;-61
2023/09/02 07:50:30;;;;;;;5.60;3.00;;;;;;;20.05;85.79;101288.13;4981057;28;20051;-61
2023/09/02 07:52:57;;;;;;;6.72;3.05;;;;;;;20.24;86.32;101291.88;4982419;28;20098;-61
2023/09/02 07:55:25;;;;;;;8.02;3.53;;;;;;;20.46;82.13;101295.25;4982612;28;20050;-61
2023/09/02 07:57:52;;;;;;;6.28;2.88;;;;;;;20.67;77.63;101298.56;4981847;28;20463;-61
2023/09/02 08:04:11;;;;;;;9.25;3.83;;;;;;;21.51;68.06;101295.94;5999356;23;20328;-62
2023/09/02 08:06:38;;;;;;;6.68;3.30;;;;;;;21.60;67.89;101300.91;4966274;28;20409;-61
2023/09/02 08:09:05;;;;;;;8.65;3.05;;;;;;;21.77;66.05;101303.09;4972888;28;20418;-62
2023/09/02 08:11:31;;;;;;;8.13;3.20;;;;;;;22.58;60.50;101302.28;4971633;28;20051;-61
2023/09/02 08:13:58;;;;;;;7.35;2.47;;;;;;;22.22;58.36;101300.25;4973372;28;20458;-60
2023/09/02 08:16:25;;;;;;;10.73;3.00;;;;;;;22.11;58.07;101306.47;4972757;28;20422;-60
2023/09/02 08:18:51;;;;;;;6.13;2.95;;;;;;;22.28;56.01;101305.66;4973068;28;20070;-60
2023/09/02 08:21:19;;;;;;;7.80;2.65;;;;;;;22.37;56.36;101308.13;4972939;28;20225;-61
2023/09/02 08:23:45;;;;;;;6.25;2.75;;;;;;;22.64;54.98;101315.06;4971843;28;20109;-62
2023/09/02 08:26:13;;;;;;;8.13;2.60;;;;;;;22.79;55.12;101310.03;4973260;28;20454;-62
2023/09/02 08:28:41;;;;;;;5.63;2.17;;;;;;;22.97;52.17;101319.31;4972722;28;20050;-61
2023/09/02 08:31:11;;;;;;;6.53;2.40;;;;;;;23.15;49.00;101313.84;4954956;28;20057;-61
2023/09/02 08:33:38;;;;;;;4.57;2.50;;;;;;;23.61;47.83;101317.03;4972992;28;20529;-60
2023/09/02 08:36:05;;;;;;;5.00;1.85;;;;;;;24.31;46.09;101321.88;4972783;28;20082;-61
2023/09/02 08:38:33;;;;;;;6.40;2.28;;;;;;;25.29;43.96;101320.22;4972595;28;20051;-61
2023/09/02 08:41:01;;;;;;;6.72;2.50;;;;;;;24.60;44.81;101322.84;4972392;28;20046;-62
2023/09/02 08:43:29;;;;;;;6.78;2.67;;;;;;;24.60;44.66;101329.16;4973147;28;20058;-61
2023/09/02 08:46:00;;;;;;;6.80;2.05;;;;;;;24.44;44.35;101327.97;4973262;28;20042;-60
2023/09/02 08:48:32;;;;;;;4.72;2.42;;;;;;;24.80;44.49;101331.53;4972384;28;20047;-61
2023/09/02 08:50:59;;;;;;;5.88;2.50;;;;;;;26.26;41.84;101328.34;4972478;28;20038;-61
2023/09/02 08:53:28;;;;;;;4.60;2.35;;;;;;;25.28;42.12;101329.56;4973203;28;20042;-62
2023/09/02 08:55:56;;;;;;;9.52;2.70;;;;;;;25.97;41.83;101327.56;4973366;28;20453;-63
2023/09/02 08:58:25;;;;;;;5.45;2.10;;;;;;;26.17;40.59;101332.59;4972459;28;20114;-62
2023/09/02 09:00:52;;;;;;;7.07;2.15;;;;;;;25.69;41.24;101335.88;4972631;28;20073;-61
2023/09/02 09:03:19;;;;;;;8.95;4.40;;;;;;;25.80;40.48;101335.78;4972150;28;20129;-59
2023/09/02 09:05:48;;;;;;;13.82;8.95;;;;;;;26.05;40.41;101327.16;4972263;28;20057;-59
2023/09/02 09:08:16;;;;;;;9.63;2.75;;;;;;;26.53;39.56;101341.41;4972547;28;20058;-58
2023/09/02 09:10:43;;;;;;;8.73;3.08;;;;;;;26.87;38.34;101333.13;4972317;28;20419;-58
2023/09/02 09:13:13;;;;;;;4.13;2.00;;;;;;;26.90;38.66;101335.34;4972358;28;20070;-58
2023/09/02 09:15:41;;;;;;;5.10;2.13;;;;;;;27.33;37.25;101337.31;4972083;28;20059;-59
2023/09/02 09:18:11;;;;;;;7.25;2.95;;;;;;;28.14;36.73;101344.75;4955421;28;20039;-60
2023/09/02 09:20:39;;;;;;;7.10;2.28;;;;;;;28.19;35.43;101337.34;4972551;28;20495;-58
2023/09/02 09:23:07;;;;;;;4.03;1.75;;;;;;;29.24;34.49;101342.16;4971719;28;20097;-63
2023/09/02 09:25:35;;;;;;;7.50;2.30;;;;;;;29.10;34.03;101346.50;4972376;28;20070;-63
2023/09/02 09:28:09;;;;;;;4.72;2.10;;;;;;;29.31;34.30;101353.78;4972133;28;20063;-62
2023/09/02 09:30:36;;;;;;;6.40;3.05;;;;;;;29.47;33.91;101340.84;4971700;28;20513;-63
2023/09/02 09:33:05;;;;;;;4.40;2.15;;;;;;;29.94;33.79;101341.75;4954878;28;20050;-63
2023/09/02 09:35:32;;;;;;;9.73;2.65;;;;;;;29.93;33.36;101342.88;4970663;28;20101;-63
2023/09/02 09:37:59;;;;;;;5.53;2.83;;;;;;;30.56;32.50;101343.44;4972152;28;20042;-61
2023/09/02 09:40:31;;;;;;;6.22;2.63;;;;;;;30.40;32.57;101345.38;4971290;28;20042;-75
2023/09/02 09:42:59;;;;;;;6.97;2.30;;;;;;;30.21;32.62;101347.88;4972350;28;20047;-75
2023/09/02 09:45:28;;;;;;;4.93;2.08;;;;;;;31.03;31.58;101356.09;4972194;28;20114;-75
2023/09/02 09:47:59;;;;;;;4.55;2.33;;;;;;;30.88;31.63;101359.72;4971839;28;20047;-63
2023/09/02 09:50:28;;;;;;;5.22;2.33;;;;;;;31.74;30.58;101349.34;4971845;28;20490;-64
2023/09/02 09:53:01;;;;;;;4.35;2.13;;;;;;;32.60;29.35;101346.97;4971599;28;20050;-63
2023/09/02 09:55:29;;;;;;;6.80;2.35;;;;;;;31.12;30.93;101343.28;4972114;28;20066;-63
2023/09/02 09:57:57;;;;;;;3.70;1.85;;;;;;;29.75;32.67;101350.59;4971469;28;20102;-63
2023/09/02 10:00:26;;;;;;;4.65;2.20;;;;;;;28.55;34.42;101358.88;4971555;28;20046;-64
2023/09/02 10:02:54;;;;;;;7.85;2.58;;;;;;;27.62;36.06;101353.59;4971499;28;20070;-64
2023/09/02 10:05:25;;;;;;;7.88;2.95;;;;;;;27.38;36.34;101359.41;4972527;28;20070;-65
2023/09/02 10:08:05;;;;;;;11.13;2.03;;;;;;;28.78;34.64;101352.97;4972436;28;20042;-65
2023/09/02 10:10:34;;;;;;;4.88;2.05;;;;;;;28.59;34.03;101357.25;4972450;28;20055;-66
2023/09/02 10:13:02;;;;;;;6.80;2.00;;;;;;;27.50;36.24;101348.25;4972759;28;20043;-66
2023/09/02 10:15:30;;;;;;;6.22;2.28;;;;;;;26.19;38.43;101348.84;4972748;28;20105;-65
2023/09/02 10:18:06;;;;;;;7.72;2.83;;;;;;;25.02;40.52;101361.94;4972201;28;20109;-66
2023/09/02 10:20:35;;;;;;;7.85;2.50;;;;;;;24.26;42.64;101360.09;4972294;28;20462;-67
2023/09/02 10:23:07;;;;;;;7.13;2.60;;;;;;;24.24;43.38;101362.28;4973202;28;20055;-67
2023/09/02 10:26:00;;;;;;;7.63;2.70;;;;;;;23.98;44.19;101359.69;4971636;28;20560;-66
2023/09/02 10:28:36;;;;;;;8.32;3.05;;;;;;;23.19;45.85;101361.59;4971739;28;20051;-64
2023/09/02 10:31:12;;;;;;;8.77;2.53;;;;;;;23.56;46.58;101356.06;4972513;28;20105;-65
2023/09/02 10:33:45;;;;;;;9.00;3.05;;;;;;;24.96;44.20;101353.81;4971584;28;20057;-65
2023/09/02 10:36:18;;;;;;;7.07;2.20;;;;;;;26.75;40.93;101347.81;4971856;28;20055;-67
2023/09/02 10:38:48;;;;;;;7.20;1.80;;;;;;;26.51;40.74;101358.16;4971658;28;20449;-65
2023/09/02 10:41:17;;;;;;;8.95;2.53;;;;;;;26.65;40.10;101355.06;4971628;28;20043;-66
2023/09/02 10:43:45;;;;;;;6.45;2.45;;;;;;;26.90;39.86;101358.22;4970770;28;20465;-65
2023/09/02 10:46:12;;;;;;;8.10;2.30;;;;;;;26.07;41.18;101352.50;4972849;28;20050;-66
2023/09/02 10:48:43;;;;;;;8.02;2.13;;;;;;;25.15;42.74;101364.44;4974781;28;20051;-65
2023/09/02 10:51:10;;;;;;;6.68;2.50;;;;;;;24.52;44.67;101365.19;4975130;28;20047;-65
2023/09/02 10:53:50;;;;;;;5.53;2.45;;;;;;;23.51;46.68;101372.38;4974954;28;20520;-64
2023/09/02 10:56:24;;;;;;;5.88;2.47;;;;;;;22.91;48.58;101372.19;4974684;28;20497;-65
2023/09/02 10:58:51;;;;;;;5.95;2.28;;;;;;;22.36;50.80;101364.72;4974741;28;20401;-66
2023/09/02 11:01:18;;;;;;;8.90;2.47;;;;;;;22.05;52.57;101371.03;4965392;28;20051;-69
2023/09/02 11:03:48;;;;;;;8.63;4.32;;;;;;;21.74;54.79;101372.69;4953695;28;20053;-70
2023/09/02 11:06:15;;;;;;;10.70;3.70;;;;;;;21.65;55.92;101371.25;4954598;28;20051;-71
2023/09/02 11:08:44;;;;;;;10.73;6.88;;;;;;;21.33;57.29;101373.09;4955372;28;20062;-61
2023/09/02 11:11:12;;;;;;;10.38;3.85;;;;;;;20.92;59.90;101375.06;4955237;28;20070;-61
2023/09/02 11:14:07;;;;;;;12.90;3.00;;;;;;;20.57;61.60;101379.94;4963286;28;20093;-62
2023/09/02 11:16:34;;;;;;;6.25;2.53;;;;;;;20.35;64.62;101382.00;4973681;28;20414;-61
2023/09/02 11:19:08;;;;;;;6.57;2.63;;;;;;;20.18;67.87;101380.75;4974569;28;20047;-60
2023/09/02 11:21:39;;;;;;;5.13;2.25;;;;;;;20.10;70.93;101380.91;4974172;28;20058;-62
2023/09/02 11:24:20;;;;;;;8.38;2.15;;;;;;;19.75;74.67;101386.50;4974096;28;20047;-62